Time,TemperatureF,DewpointF,PressureIn,WindDirection,WindDirectionDegrees,WindSpeedMPH,WindSpeedGustMPH,Humidity,HourlyPrecipIn,Conditions,Clouds,dailyrainin,SoftwareType,DateUTC
2013-06-12 10:30:00,69.1,45.6,0.00,WSW,257,4.0,13.0,43,0.00,,,0.00,Weather View 32 v70,2013-06-12 14:30:00,
2013-06-12 10:45:00,69.6,44.2,0.00,NW,305,4.0,13.0,40,0.00,,,0.00,Weather View 32 v70,2013-06-12 14:45:00,
2013-06-12 13:00:00,73.8,44.3,0.00,West,278,3.0,8.0,35,0.00,,,0.00,Weather View 32 v70,2013-06-12 17:00:00,
2013-06-12 13:15:00,72.9,42.0,0.00,North,353,6.0,8.0,33,0.00,,,0.00,Weather View 32 v70,2013-06-12 17:15:00,
2013-06-12 13:30:00,73.6,42.6,0.00,North,1,3.0,11.0,33,0.00,,,0.00,Weather View 32 v70,2013-06-12 17:30:00,
2013-06-12 13:45:00,72.9,42.8,0.00,North,357,8.0,11.0,34,0.00,,,0.00,Weather View 32 v70,2013-06-12 17:45:00,
2013-06-12 14:00:00,73.4,43.2,0.00,NNE,19,4.0,11.0,34,0.00,,,0.00,Weather View 32 v70,2013-06-12 18:00:00,
2013-06-12 14:15:00,73.4,44.0,0.00,North,353,3.0,11.0,35,0.00,,,0.00,Weather View 32 v70,2013-06-12 18:15:00,
2013-06-12 14:30:00,72.7,43.4,0.00,North,353,3.0,11.0,35,0.00,,,0.00,Weather View 32 v70,2013-06-12 18:30:00,
2013-06-12 14:45:00,73.4,43.2,0.00,NNW,342,5.0,11.0,34,0.00,,,0.00,Weather View 32 v70,2013-06-12 18:45:00,
2013-06-12 15:00:00,73.4,41.7,0.00,North,11,5.0,11.0,32,0.00,,,0.00,Weather View 32 v70,2013-06-12 19:00:00,
2013-06-12 15:15:00,74.1,43.9,0.00,NNW,346,4.0,10.0,34,0.00,,,0.00,Weather View 32 v70,2013-06-12 19:15:00,
2013-06-12 15:30:00,73.9,42.9,0.00,North,10,4.0,10.0,33,0.00,,,0.00,Weather View 32 v70,2013-06-12 19:30:00,
2013-06-12 15:45:00,74.5,43.4,0.00,NNW,331,4.0,10.0,33,0.00,,,0.00,Weather View 32 v70,2013-06-12 19:45:00,
2013-06-12 16:00:00,75.0,44.7,0.00,NNW,333,0.0,10.0,34,0.00,,,0.00,Weather View 32 v70,2013-06-12 20:00:00,
2013-06-12 16:15:00,75.0,43.9,0.00,North,349,3.0,10.0,33,0.00,,,0.00,Weather View 32 v70,2013-06-12 20:15:00,
2013-06-12 16:30:00,75.6,43.5,0.00,East,79,6.0,10.0,32,0.00,,,0.00,Weather View 32 v70,2013-06-12 20:30:00,
2013-06-12 16:45:00,75.7,42.9,0.00,NE,38,4.0,8.0,31,0.00,,,0.00,Weather View 32 v70,2013-06-12 20:45:00,
2013-06-12 17:00:00,76.1,43.2,0.00,NNE,21,0.0,8.0,31,0.00,,,0.00,Weather View 32 v70,2013-06-12 21:00:00,
2013-06-12 17:15:00,75.2,43.2,0.00,NNE,16,4.0,8.0,32,0.00,,,0.00,Weather View 32 v70,2013-06-12 21:15:00,
2013-06-12 17:30:00,75.4,42.6,0.00,NNW,334,3.0,11.0,31,0.00,,,0.00,Weather View 32 v70,2013-06-12 21:30:00,
2013-06-12 17:45:00,75.9,43.9,0.00,North,357,2.0,11.0,32,0.00,,,0.00,Weather View 32 v70,2013-06-12 21:45:00,
2013-06-12 17:50:00,75.9,43.9,0.00,North,357,2.0,11.0,32,0.00,,,0.00,Weather View 32 v70,2013-06-12 21:50:00,
2013-06-12 18:00:00,76.1,43.2,0.00,NW,322,4.0,11.0,31,0.00,,,0.00,Weather View 32 v70,2013-06-12 22:00:00,
2013-06-12 18:15:00,75.7,43.7,0.00,NNW,338,3.0,11.0,32,0.00,,,0.00,Weather View 32 v70,2013-06-12 22:15:00,
2013-06-12 18:30:00,75.0,43.1,0.00,NNE,32,3.0,7.0,32,0.00,,,0.00,Weather View 32 v70,2013-06-12 22:30:00,
2013-06-12 18:45:00,74.8,43.7,0.00,North,10,3.0,7.0,33,0.00,,,0.00,Weather View 32 v70,2013-06-12 22:45:00,
2013-06-12 18:50:00,74.8,43.7,0.00,North,10,3.0,7.0,33,0.00,,,0.00,Weather View 32 v70,2013-06-12 22:50:00,
2013-06-12 19:00:00,74.3,43.3,0.00,NW,312,0.0,7.0,33,0.00,,,0.00,Weather View 32 v70,2013-06-12 23:00:00,
2013-06-12 19:15:00,73.8,44.3,0.00,North,0,0.0,7.0,35,0.00,,,0.00,Weather View 32 v70,2013-06-12 23:15:00,
2013-06-12 19:30:00,73.4,44.0,0.00,North,11,0.0,5.0,35,0.00,,,0.00,Weather View 32 v70,2013-06-12 23:30:00,
2013-06-12 19:45:00,72.7,43.4,0.00,North,11,0.0,5.0,35,0.00,,,0.00,Weather View 32 v70,2013-06-12 23:45:00,
2013-06-12 19:51:00,72.7,43.4,0.00,North,11,0.0,5.0,35,0.00,,,0.00,Weather View 32 v70,2013-06-12 23:51:00,
2013-06-12 20:00:00,71.8,43.3,0.00,North,2,0.0,4.0,36,0.00,,,0.00,Weather View 32 v70,2013-06-13 00:00:00,
2013-06-12 20:15:00,70.9,43.2,0.00,WNW,299,0.0,4.0,37,0.00,,,0.00,Weather View 32 v70,2013-06-13 00:15:00,
2013-06-12 20:30:00,70.2,44.0,0.00,NW,319,0.0,4.0,39,0.00,,,0.00,Weather View 32 v70,2013-06-13 00:30:00,
2013-06-12 21:15:00,67.5,46.5,0.00,NW,319,0.0,3.0,47,0.00,,,0.00,Weather View 32 v70,2013-06-13 01:15:00,
2013-06-12 21:30:00,66.9,47.1,0.00,NW,319,0.0,0.0,49,0.00,,,0.00,Weather View 32 v70,2013-06-13 01:30:00,
2013-06-12 21:45:00,66.6,46.8,0.00,NW,319,0.0,0.0,49,0.00,,,0.00,Weather View 32 v70,2013-06-13 01:45:00,
2013-06-12 21:52:00,66.6,46.8,0.00,NW,319,0.0,0.0,49,0.00,,,0.00,Weather View 32 v70,2013-06-13 01:52:00,
2013-06-12 22:00:00,65.8,47.2,0.00,NW,319,0.0,0.0,51,0.00,,,0.00,Weather View 32 v70,2013-06-13 02:00:00,
2013-06-12 22:15:00,65.3,46.7,0.00,NW,319,0.0,0.0,51,0.00,,,0.00,Weather View 32 v70,2013-06-13 02:15:00,
2013-06-12 22:30:00,64.9,48.3,0.00,NW,319,0.0,0.0,55,0.00,,,0.00,Weather View 32 v70,2013-06-13 02:30:00,
2013-06-12 22:45:00,64.0,48.5,0.00,NW,319,0.0,0.0,57,0.00,,,0.00,Weather View 32 v70,2013-06-13 02:45:00,
2013-06-12 23:00:00,63.9,49.2,0.00,NW,319,0.0,0.0,59,0.00,,,0.00,Weather View 32 v70,2013-06-13 03:00:00,
2013-06-12 23:15:00,63.3,49.6,0.00,NW,319,0.0,0.0,61,0.00,,,0.00,Weather View 32 v70,2013-06-13 03:15:00,
2013-06-12 23:30:00,62.8,50.0,0.00,NW,319,0.0,0.0,63,0.00,,,0.00,Weather View 32 v70,2013-06-13 03:30:00,
2013-06-12 23:45:00,62.2,50.7,0.00,NW,319,0.0,0.0,66,0.00,,,0.00,Weather View 32 v70,2013-06-13 03:45:00,
2013-06-12 23:53:00,62.2,50.7,0.00,NW,319,0.0,0.0,66,0.00,,,0.00,Weather View 32 v70,2013-06-13 03:53:00,